Aeroporto :
LOGIN :

Iscrizione | Disclaimer

   EN    FR    IT 

 










Sommario :    VFR   VFR Marginale   IFR   IFR Intensivo   IFR Molto Intensivo
Visibilità : 
Base nubi : 
>= 8 km
>= 3000ft
5 / 8 km
1000 / 3000 ft
1500m / 5 km
500 / 1000 ft
800 / 1500m
200 / 500 ft
< 800m
< 200 ft
Simboli :   Temporali  Nebbia  Neve Forte  Precipitazioni Forti  Vento > 20 kt
SIGMETs :   Varie  Temporali  Ghiacco  Turbolenza  Onda orograficha  Ceneri Vulcaniche







- Altitudine del aeroporto : 1516 ft
- Codice IATA : AGB


EDMA - Augsburg

ULTIMO METAR :
  • 221220Z 06012KT 030V090 CAVOK 21/04 Q1008

METARs OBSOLETI :
  • 221150Z 09014KT CAVOK 21/04 Q1008
  • 221120Z 10014KT CAVOK 21/03 Q1008
  • 221050Z 09014KT CAVOK 20/02 Q1009
  • 221020Z 10014KT CAVOK 19/03 Q1009
  • 220950Z 10010KT 060V120 CAVOK 18/03 Q1010

TAF TAF EDMA
Valido dal 22 a 12 ore il 22 a 21 ore UTC


221100Z 2212/2221 09015G25KT CAVOK
BECMG 2218/2220 07008KT
Nessun NOTAM noto per questo aeroporto.



MetMap, La meteo Aeronautica in un colpo d'occhio ! - Copyright ORBIFLY Dicembre 2007 - Disclaimer

ORBIFLY MET'MAP TEAM :

Programmazione e sviluppo : Alexandra Zaïnal
Concezione e sviluppo : Baudouin d'Aumeries
Co-Programmazione e sviluppo : Marc-Olivier Méhu
Supporto tecnico e logistico : Manuel Goepfert
Aiuto per la traduzione : Arnaldo La Scala

Contatto : metmap@orbifly.com




FONTI E CREDITI :

   NOAA